Time;durP1;ratioP1;P1;durP2;ratioP2;P2;SDS_P1;SDS_P2;PMS_P1;PMS_P2;Temp;Humidity;BMP_temperature;BMP_pressure;BME280_temperature;BME280_humidity;BME280_pressure;Samples;Min_cycle;Max_cycle;Signal;HPM_P1;HPM_P2
2023/12/04 00:00:45;;;;;;;6.27;2.90;;;;;;;-145.69;58.63;52420.63;5055910;28;20718;-83
2023/12/04 00:03:12;;;;;;;5.67;2.50;;;;;;;-145.69;59.01;52416.66;5055650;28;20201;-83
2023/12/04 00:05:38;;;;;;;7.20;3.33;;;;;;;-145.69;59.08;52386.97;5055890;28;20313;-83
2023/12/04 00:08:05;;;;;;;5.50;2.87;;;;;;;-145.69;59.16;52408.75;5055986;28;20199;-82
2023/12/04 00:10:31;;;;;;;5.07;2.47;;;;;;;-145.69;59.35;52400.81;5055462;28;20242;-83
2023/12/04 00:12:58;;;;;;;5.80;2.67;;;;;;;-145.69;59.21;52422.59;5055731;28;20203;-83
2023/12/04 00:15:24;;;;;;;6.80;2.97;;;;;;;-145.69;58.84;52404.78;5055435;28;20203;-83
2023/12/04 00:17:52;;;;;;;5.70;2.57;;;;;;;-145.69;59.24;52381.00;5055580;28;20200;-83
2023/12/04 00:20:19;;;;;;;5.47;2.80;;;;;;;-145.69;59.17;52412.69;5055575;28;20658;-83
2023/12/04 00:22:46;;;;;;;5.70;2.90;;;;;;;-145.69;59.10;52420.63;5055427;28;20277;-83
2023/12/04 00:25:13;;;;;;;5.67;3.00;;;;;;;-145.69;59.36;52436.47;5055811;28;20227;-83
2023/12/04 00:27:39;;;;;;;3.97;2.30;;;;;;;-145.69;59.44;52452.31;5055417;28;20653;-83
2023/12/04 00:30:07;;;;;;;4.57;2.50;;;;;;;-145.69;59.20;52440.44;5054768;28;20203;-83
2023/12/04 00:32:33;;;;;;;3.77;2.23;;;;;;;-145.69;59.74;52412.69;5055513;28;20299;-83
2023/12/04 00:35:01;;;;;;;4.53;2.37;;;;;;;-145.69;59.57;52442.41;5062469;28;20296;-83
2023/12/04 00:37:28;;;;;;;5.17;3.03;;;;;;;-145.69;59.40;52432.50;5056302;28;20200;-83
2023/12/04 00:39:55;;;;;;;5.40;2.97;;;;;;;-145.69;58.77;52412.69;5055013;28;20586;-83
2023/12/04 00:42:30;;;;;;;6.73;3.03;;;;;;;-145.69;59.33;52408.75;5054611;28;20677;-83
2023/12/04 00:44:56;;;;;;;5.77;2.77;;;;;;;-145.69;59.20;52420.63;5055016;28;20285;-83
2023/12/04 00:47:25;;;;;;;5.53;2.90;;;;;;;-145.69;59.01;52424.59;5054733;28;20226;-82
2023/12/04 00:49:54;;;;;;;4.63;2.67;;;;;;;-145.69;58.85;52480.03;5055259;28;20261;-83
2023/12/04 00:52:23;;;;;;;6.23;3.27;;;;;;;-145.69;59.30;52426.56;5055359;28;20204;-83
2023/12/04 00:54:49;;;;;;;5.30;3.23;;;;;;;-145.69;59.39;52424.59;5054896;28;20207;-83
2023/12/04 00:57:16;;;;;;;6.03;3.20;;;;;;;-145.69;58.97;52416.66;5054642;28;20211;-83
2023/12/04 00:59:45;;;;;;;7.00;3.03;;;;;;;-145.69;58.83;52404.78;5054789;28;20199;-82
2023/12/04 01:02:17;;;;;;;6.70;2.70;;;;;;;-145.69;59.54;52410.72;5054719;28;20231;-83
2023/12/04 01:04:43;;;;;;;5.60;2.53;;;;;;;-145.69;58.98;52408.75;5071629;28;20277;-82
2023/12/04 01:07:10;;;;;;;7.00;3.60;;;;;;;-145.69;58.97;52404.78;5074660;28;20210;-82
2023/12/04 01:09:41;;;;;;;6.97;2.90;;;;;;;-145.69;59.25;52420.63;5074609;28;20306;-83
2023/12/04 01:12:07;;;;;;;4.50;2.90;;;;;;;-145.69;59.64;52454.28;5074531;28;20681;-83
2023/12/04 01:14:39;;;;;;;4.77;2.63;;;;;;;-145.69;59.35;52410.72;5074352;28;20198;-83
2023/12/04 01:17:09;;;;;;;6.90;3.30;;;;;;;-145.69;59.68;52402.78;5074237;28;20213;-83
2023/12/04 01:19:37;;;;;;;6.33;3.13;;;;;;;-145.69;59.40;52396.84;5074402;28;20226;-83
2023/12/04 01:22:04;;;;;;;5.27;2.80;;;;;;;-145.69;59.74;52384.97;5074395;28;20210;-83
2023/12/04 01:24:31;;;;;;;7.37;3.33;;;;;;;-145.69;59.01;52432.50;5073928;28;20222;-83
2023/12/04 01:27:01;;;;;;;5.10;2.83;;;;;;;-145.69;59.26;52432.50;5074535;28;20199;-83
2023/12/04 01:29:28;;;;;;;5.27;2.83;;;;;;;-145.69;59.09;52392.91;5074486;28;20553;-83
2023/12/04 01:31:55;;;;;;;8.20;3.30;;;;;;;-145.69;59.60;52440.44;5073984;28;20209;-83
2023/12/04 01:34:22;;;;;;;4.90;3.00;;;;;;;-145.69;59.29;52408.75;5073956;28;20649;-83
2023/12/04 01:36:48;;;;;;;5.03;2.87;;;;;;;-145.69;58.57;52426.56;5074123;28;20839;-82
2023/12/04 01:39:15;;;;;;;5.57;2.60;;;;;;;-145.69;58.95;52396.84;5073631;28;20215;-83
2023/12/04 01:41:41;;;;;;;4.53;2.50;;;;;;;-145.69;59.11;52381.00;5073689;28;20207;-83
2023/12/04 01:44:10;;;;;;;7.43;3.30;;;;;;;-145.69;59.56;52420.63;5073767;28;20213;-83
2023/12/04 01:46:39;;;;;;;5.03;2.80;;;;;;;-145.69;59.81;52386.97;5073595;28;20237;-83
2023/12/04 01:49:09;;;;;;;5.63;2.80;;;;;;;-145.69;59.36;52396.84;5074117;28;20290;-83
2023/12/04 01:51:36;;;;;;;5.43;3.10;;;;;;;-145.69;58.83;52420.63;5073954;28;20199;-82
2023/12/04 01:54:05;;;;;;;8.23;3.57;;;;;;;-145.69;59.45;52422.59;5064262;28;20196;-83
2023/12/04 01:56:32;;;;;;;7.83;3.43;;;;;;;-145.69;59.57;52396.84;5053448;28;20678;-83
2023/12/04 01:58:59;;;;;;;7.03;3.47;;;;;;;-145.69;59.21;52404.78;5052462;28;20203;-83
2023/12/04 02:01:31;;;;;;;8.97;3.93;;;;;;;-145.69;59.25;52450.31;5054064;28;20199;-83
2023/12/04 02:04:07;;;;;;;6.57;3.33;;;;;;;-145.69;59.62;52446.38;5073336;28;20205;-83
2023/12/04 02:06:34;;;;;;;8.00;4.13;;;;;;;-145.69;59.45;52438.44;5072074;28;20222;-82
2023/12/04 02:09:02;;;;;;;8.37;3.93;;;;;;;-145.69;59.10;52414.69;5073483;28;20227;-83
2023/12/04 02:11:29;;;;;;;6.63;3.30;;;;;;;-145.69;59.29;52432.50;5074056;28;20199;-83
2023/12/04 02:13:57;;;;;;;8.50;3.90;;;;;;;-145.69;58.86;52424.59;5070837;28;20191;-83
2023/12/04 02:16:28;;;;;;;10.40;3.97;;;;;;;-145.69;58.83;52416.66;5073274;28;20211;-83
2023/12/04 02:18:54;;;;;;;6.27;3.37;;;;;;;-145.69;59.09;52432.50;5073327;28;20199;-83
2023/12/04 02:21:21;;;;;;;5.70;2.93;;;;;;;-145.69;59.26;52428.53;5072228;28;20214;-82
2023/12/04 02:23:50;;;;;;;6.83;3.23;;;;;;;-145.69;59.22;52404.78;5073176;28;20217;-83
2023/12/04 02:26:32;;;;;;;6.63;3.50;;;;;;;-145.69;59.64;52422.59;5073173;28;20233;-82
2023/12/04 02:29:06;;;;;;;7.47;3.53;;;;;;;-145.69;59.90;52444.38;5072956;28;20206;-83
2023/12/04 02:31:35;;;;;;;9.03;4.23;;;;;;;-145.69;59.77;52428.53;5073111;28;20206;-82
2023/12/04 02:34:07;;;;;;;6.37;3.27;;;;;;;-145.69;60.21;52446.38;5073164;28;20194;-83
2023/12/04 02:36:35;;;;;;;9.00;4.20;;;;;;;-145.69;59.26;52438.44;5070676;28;20213;-83
2023/12/04 02:39:06;;;;;;;5.67;3.40;;;;;;;-145.69;59.38;52436.47;5072863;28;20206;-83
2023/12/04 02:41:32;;;;;;;8.07;3.77;;;;;;;-145.69;59.37;52420.63;5072978;28;20209;-83
2023/12/04 02:43:59;;;;;;;7.27;3.17;;;;;;;-145.69;59.26;52422.59;5065889;28;20195;-83
2023/12/04 02:46:25;;;;;;;7.93;3.70;;;;;;;-145.69;59.28;52400.81;5052763;28;20661;-83
2023/12/04 02:48:54;;;;;;;7.57;3.17;;;;;;;-145.69;59.31;52440.44;5052789;28;20202;-83
2023/12/04 02:51:21;;;;;;;7.45;4.30;;;;;;;-145.69;59.64;52424.59;5051664;28;20448;-82
2023/12/04 02:53:47;;;;;;;7.07;3.30;;;;;;;-145.69;59.69;52418.63;5051724;28;20397;-83
2023/12/04 02:56:15;;;;;;;6.07;3.40;;;;;;;-145.69;59.69;52422.59;5055274;28;20203;-83
2023/12/04 02:58:41;;;;;;;7.17;3.20;;;;;;;-145.69;59.61;52408.75;5052929;28;20212;-83
2023/12/04 03:01:08;;;;;;;6.23;3.60;;;;;;;-145.69;59.96;52432.50;5052589;28;20206;-83
2023/12/04 03:03:35;;;;;;;6.53;3.40;;;;;;;-145.69;60.06;52408.75;5052725;28;20540;-82
2023/12/04 03:06:01;;;;;;;6.60;3.70;;;;;;;-145.69;60.29;52384.97;5052669;28;20237;-83
2023/12/04 03:08:28;;;;;;;5.63;3.13;;;;;;;-145.69;59.39;52466.16;5052444;28;20214;-82
2023/12/04 03:10:54;;;;;;;6.80;3.17;;;;;;;-145.69;59.11;52428.53;5052744;28;20210;-82
2023/12/04 03:13:22;;;;;;;8.33;3.23;;;;;;;-145.69;59.46;52438.44;5052672;28;20558;-82
2023/12/04 03:15:48;;;;;;;5.67;3.10;;;;;;;-145.69;59.52;52432.50;5052569;28;20208;-83
2023/12/04 03:18:15;;;;;;;5.67;3.07;;;;;;;-145.69;59.51;52400.81;5052505;28;20209;-82
2023/12/04 03:20:41;;;;;;;6.10;3.23;;;;;;;-145.69;60.00;52438.44;5052568;28;20208;-82
2023/12/04 03:23:08;;;;;;;7.67;3.43;;;;;;;-145.69;59.13;52436.47;5052409;28;20650;-83
2023/12/04 03:25:34;;;;;;;10.07;3.20;;;;;;;-145.69;59.61;52402.78;5069372;28;20225;-83
2023/12/04 03:28:01;;;;;;;4.63;2.70;;;;;;;-145.69;59.40;52408.75;5072540;28;20198;-83
2023/12/04 03:30:29;;;;;;;7.10;3.13;;;;;;;-145.69;59.69;52404.78;5072851;28;20280;-82
2023/12/04 03:32:56;;;;;;;6.93;2.87;;;;;;;-145.69;59.33;52432.50;5072784;28;20281;-83
2023/12/04 03:35:22;;;;;;;5.90;3.17;;;;;;;-145.69;59.11;52404.78;5072497;28;20286;-83
2023/12/04 03:37:49;;;;;;;5.30;2.87;;;;;;;-145.69;59.32;52396.84;5072396;28;20650;-83
2023/12/04 03:40:16;;;;;;;6.67;3.20;;;;;;;-145.69;59.70;52408.75;5072484;28;20527;-83
2023/12/04 03:42:42;;;;;;;5.00;2.87;;;;;;;-145.69;59.42;52416.66;5072488;28;20646;-83
2023/12/04 03:45:10;;;;;;;6.03;3.33;;;;;;;-145.69;59.83;52392.91;5071953;28;20199;-83
2023/12/04 03:47:38;;;;;;;6.70;3.30;;;;;;;-145.69;59.22;52444.38;5072299;28;20206;-82
2023/12/04 03:50:05;;;;;;;6.30;2.77;;;;;;;-145.69;58.67;52400.81;5072098;28;20672;-82
2023/12/04 03:52:32;;;;;;;6.60;2.90;;;;;;;-145.69;58.89;52416.66;5072081;28;20210;-83
2023/12/04 03:54:58;;;;;;;5.10;2.80;;;;;;;-145.69;58.49;52424.59;5072362;28;20206;-82
2023/12/04 03:57:25;;;;;;;5.43;2.77;;;;;;;-145.69;58.46;52444.38;5072613;28;20298;-83
2023/12/04 03:59:51;;;;;;;5.57;2.73;;;;;;;-145.69;58.88;52398.84;5072159;28;20201;-83
2023/12/04 04:02:18;;;;;;;7.13;2.87;;;;;;;-145.69;58.31;52406.75;5071852;28;20206;-82
2023/12/04 04:04:46;;;;;;;5.53;2.90;;;;;;;-145.69;57.94;52373.09;5072152;28;20557;-83
2023/12/04 04:07:12;;;;;;;7.37;3.10;;;;;;;-145.69;58.11;52386.97;5075603;28;20223;-83
2023/12/04 04:09:39;;;;;;;5.67;2.97;;;;;;;-145.69;58.51;52390.91;5075510;28;20728;-83
2023/12/04 04:12:06;;;;;;;8.20;3.10;;;;;;;-145.69;58.18;52371.13;5075636;28;20262;-83
2023/12/04 04:14:32;;;;;;;6.30;2.90;;;;;;;-145.69;57.73;52420.63;5075382;28;20561;-83
2023/12/04 04:16:59;;;;;;;4.10;2.50;;;;;;;-145.69;57.84;52424.59;5075684;28;20202;-81
2023/12/04 04:19:25;;;;;;;6.73;2.73;;;;;;;-145.69;57.02;52404.78;5075772;28;20207;-82
2023/12/04 04:21:53;;;;;;;4.70;2.23;;;;;;;-145.69;56.29;52406.75;5075694;28;20602;-83
2023/12/04 04:24:20;;;;;;;3.87;2.30;;;;;;;-145.69;56.86;52420.63;5075451;28;20610;-82
2023/12/04 04:26:46;;;;;;;3.10;1.90;;;;;;;-145.69;56.26;52375.06;5075870;28;20228;-82
2023/12/04 04:29:13;;;;;;;2.60;1.80;;;;;;;-145.69;56.65;52416.66;5076503;28;20210;-82
2023/12/04 04:31:40;;;;;;;3.30;2.00;;;;;;;-145.69;56.29;52388.94;5077303;28;20207;-82
2023/12/04 04:34:06;;;;;;;5.10;2.57;;;;;;;-145.69;56.21;52400.81;5076264;28;20642;-82
2023/12/04 04:36:35;;;;;;;4.03;2.45;;;;;;;-145.69;56.90;52392.91;5074415;28;20426;-82
2023/12/04 04:39:03;;;;;;;4.13;2.40;;;;;;;-145.69;56.47;52412.69;5075716;28;20696;-82
2023/12/04 04:41:29;;;;;;;3.63;2.10;;;;;;;-145.69;56.09;52416.66;5073285;28;20209;-82
2023/12/04 04:43:56;;;;;;;3.80;2.30;;;;;;;-145.69;56.84;52420.63;5073176;28;20199;-82
2023/12/04 04:46:25;;;;;;;4.47;2.07;;;;;;;-145.69;56.63;52377.06;5074729;28;20229;-81
2023/12/04 04:48:51;;;;;;;3.53;1.90;;;;;;;-145.69;55.82;52394.88;5075826;28;20650;-82
2023/12/04 04:51:18;;;;;;;3.40;2.03;;;;;;;-145.69;55.66;52394.88;5075408;28;20213;-81
2023/12/04 04:53:44;;;;;;;4.20;1.87;;;;;;;-145.69;55.14;52412.69;5075087;28;20557;-82
2023/12/04 04:56:12;;;;;;;4.93;2.50;;;;;;;-145.69;55.49;52396.84;5074782;28;20191;-82
2023/12/04 04:58:39;;;;;;;3.10;2.00;;;;;;;-145.69;55.69;52400.81;5074639;28;20565;-82
2023/12/04 05:01:06;;;;;;;3.47;2.03;;;;;;;-145.69;56.08;52369.13;5069722;28;20289;-82
2023/12/04 05:03:32;;;;;;;3.83;1.93;;;;;;;-145.69;56.48;52414.69;5054792;28;20200;-82
2023/12/04 05:05:59;;;;;;;5.00;2.23;;;;;;;-145.69;56.98;52398.84;5055314;28;20636;-82
2023/12/04 05:08:26;;;;;;;3.67;2.40;;;;;;;-145.69;56.47;52373.09;5055047;28;20195;-82
2023/12/04 05:10:52;;;;;;;3.73;2.13;;;;;;;-145.69;56.50;52373.09;5055915;28;20203;-82
2023/12/04 05:13:20;;;;;;;3.80;2.20;;;;;;;-145.69;56.30;52392.91;5054824;28;20669;-82
2023/12/04 05:15:47;;;;;;;3.73;2.13;;;;;;;-145.69;56.18;52381.00;5073951;28;20649;-82
2023/12/04 05:18:13;;;;;;;4.37;2.17;;;;;;;-145.69;56.15;52410.72;5073849;28;20211;-82
2023/12/04 05:20:40;;;;;;;3.47;1.83;;;;;;;-145.69;56.19;52383.00;5074804;28;20203;-82
2023/12/04 05:23:06;;;;;;;4.70;2.20;;;;;;;-145.69;56.19;52381.00;5074263;28;20207;-82
2023/12/04 05:25:33;;;;;;;4.57;2.10;;;;;;;-145.69;56.61;52402.78;5073941;28;20612;-82
2023/12/04 05:27:59;;;;;;;4.33;2.47;;;;;;;-145.69;56.52;52379.03;5074591;28;20210;-82
2023/12/04 05:30:27;;;;;;;4.70;2.10;;;;;;;-145.69;56.42;52390.91;5074282;28;20668;-82
2023/12/04 05:32:54;;;;;;;5.60;2.33;;;;;;;-145.69;56.79;52363.19;5074021;28;20203;-82
2023/12/04 05:35:21;;;;;;;4.07;2.30;;;;;;;-145.69;56.50;52406.75;5074120;28;20203;-82
2023/12/04 05:37:48;;;;;;;3.07;1.90;;;;;;;-145.69;56.41;52361.22;5074145;28;20227;-82
2023/12/04 05:40:14;;;;;;;5.73;2.30;;;;;;;-145.69;56.14;52444.38;5073947;28;20225;-82
2023/12/04 05:42:41;;;;;;;5.30;3.20;;;;;;;-145.69;57.08;52412.69;5072682;28;20439;-82
2023/12/04 05:45:08;;;;;;;6.70;3.03;;;;;;;-145.69;56.24;52408.75;5073710;28;20268;-82
2023/12/04 05:47:36;;;;;;;4.97;2.70;;;;;;;-145.69;56.43;52404.78;5073464;28;20237;-82
2023/12/04 05:50:03;;;;;;;7.07;3.13;;;;;;;-145.69;56.47;52412.69;5073718;28;20194;-82
2023/12/04 05:52:33;;;;;;;5.83;2.90;;;;;;;-145.69;56.65;52404.78;5073672;28;20207;-82
2023/12/04 05:55:03;;;;;;;3.83;2.33;;;;;;;-145.69;56.43;52408.75;5073414;28;20203;-82
2023/12/04 05:57:38;;;;;;;4.60;2.60;;;;;;;-145.69;56.55;52369.13;5073708;28;20206;-82
2023/12/04 06:00:12;;;;;;;5.03;2.23;;;;;;;-145.69;56.67;52412.69;5073561;28;20206;-82
2023/12/04 06:02:42;;;;;;;3.40;1.83;;;;;;;-145.69;56.09;52381.00;5067233;28;20619;-82
2023/12/04 06:05:09;;;;;;;3.73;2.33;;;;;;;-145.69;55.97;52398.84;5053437;28;20206;-82
2023/12/04 06:07:35;;;;;;;5.73;2.53;;;;;;;-145.69;56.49;52416.66;5053265;28;20227;-82
2023/12/04 06:10:07;;;;;;;5.30;2.53;;;;;;;-145.69;56.69;52390.91;5053216;28;20231;-82
2023/12/04 06:12:34;;;;;;;3.77;2.40;;;;;;;-145.69;57.23;52398.84;5053423;28;20214;-82
2023/12/04 06:15:06;;;;;;;5.07;2.40;;;;;;;-145.69;57.86;52377.06;5066910;28;20289;-82
2023/12/04 06:17:33;;;;;;;5.23;2.63;;;;;;;-145.69;58.09;52422.59;5073311;28;20285;-82
2023/12/04 06:20:00;;;;;;;6.80;2.97;;;;;;;-145.69;58.31;52400.81;5072977;28;20213;-82
2023/12/04 06:22:28;;;;;;;4.50;2.33;;;;;;;-145.69;58.59;52379.03;5073309;28;20210;-82
2023/12/04 06:24:55;;;;;;;5.17;2.50;;;;;;;-145.69;58.98;52412.69;5073159;28;20198;-82
2023/12/04 06:27:22;;;;;;;5.60;2.60;;;;;;;-145.69;59.01;52404.78;5072132;28;20237;-82
2023/12/04 06:29:50;;;;;;;5.70;2.23;;;;;;;-145.69;59.49;52396.84;5072800;28;20285;-82
2023/12/04 06:32:18;;;;;;;2.63;1.73;;;;;;;-145.69;59.46;52402.78;5073654;28;20195;-82
2023/12/04 06:34:45;;;;;;;5.80;2.57;;;;;;;-145.69;59.66;52371.13;5073003;28;20203;-83
2023/12/04 06:37:14;;;;;;;4.57;2.37;;;;;;;-145.69;59.76;52408.75;5072726;28;20198;-83
2023/12/04 06:39:41;;;;;;;5.77;2.73;;;;;;;-145.69;60.01;52440.44;5072984;28;20206;-82
2023/12/04 06:42:10;;;;;;;4.73;2.43;;;;;;;-145.69;59.91;52400.81;5072993;28;20566;-82
2023/12/04 06:44:37;;;;;;;6.27;2.70;;;;;;;-145.69;59.48;52361.22;5072383;28;20195;-83
2023/12/04 06:47:05;;;;;;;5.53;2.77;;;;;;;-145.69;59.15;52396.84;5072503;28;20226;-82
2023/12/04 06:49:33;;;;;;;4.63;2.30;;;;;;;-145.69;58.92;52430.53;5071184;28;20261;-82
2023/12/04 06:52:00;;;;;;;7.20;2.43;;;;;;;-145.69;59.01;52404.78;5072991;28;20207;-82
2023/12/04 06:54:28;;;;;;;4.03;2.40;;;;;;;-145.69;58.86;52418.63;5072613;28;20198;-82
2023/12/04 06:56:56;;;;;;;3.33;2.30;;;;;;;-145.69;58.83;52388.94;5070022;28;20195;-82
2023/12/04 06:59:22;;;;;;;3.50;2.07;;;;;;;-145.69;58.44;52404.78;5052711;28;20258;-82
2023/12/04 07:01:49;;;;;;;4.37;2.50;;;;;;;-145.69;58.55;52408.75;5052462;28;20646;-82
2023/12/04 07:04:20;;;;;;;4.50;2.23;;;;;;;-145.69;58.49;52416.66;5052536;28;20654;-82
2023/12/04 07:06:47;;;;;;;4.77;2.33;;;;;;;-145.69;58.23;52392.91;5052586;28;20277;-82
2023/12/04 07:09:14;;;;;;;5.90;2.77;;;;;;;-145.69;58.37;52390.91;5052439;28;20338;-82
2023/12/04 07:11:41;;;;;;;4.90;2.40;;;;;;;-145.69;57.99;52400.81;5052377;28;20195;-82
2023/12/04 07:14:08;;;;;;;4.23;2.27;;;;;;;-145.69;58.09;52404.78;5052598;28;20195;-83
2023/12/04 07:16:40;;;;;;;4.90;2.47;;;;;;;-145.69;58.00;52388.94;5052658;28;20204;-82
2023/12/04 07:19:06;;;;;;;4.23;2.60;;;;;;;-145.69;58.36;52392.91;5052755;28;20200;-82
2023/12/04 07:21:33;;;;;;;5.10;2.53;;;;;;;-145.69;58.13;52369.13;5052256;28;20662;-83
2023/12/04 07:23:59;;;;;;;5.27;2.80;;;;;;;-145.69;58.36;52384.97;5052446;28;20207;-82
2023/12/04 07:26:26;;;;;;;5.13;2.60;;;;;;;-145.69;58.19;52388.94;5052831;28;20203;-83
2023/12/04 07:28:53;;;;;;;5.57;2.60;;;;;;;-145.69;58.31;52394.88;5052239;28;20200;-83
2023/12/04 07:31:20;;;;;;;3.60;2.30;;;;;;;-145.69;58.67;52379.03;5052542;28;20207;-82
2023/12/04 07:33:46;;;;;;;5.67;2.40;;;;;;;-145.69;58.31;52424.59;5052597;28;20203;-82
2023/12/04 07:36:13;;;;;;;4.57;2.33;;;;;;;-145.69;58.23;52388.94;5052637;28;20665;-83
2023/12/04 07:38:39;;;;;;;6.33;2.93;;;;;;;-145.69;57.96;52388.94;5052021;28;20203;-83
2023/12/04 07:41:06;;;;;;;3.90;2.40;;;;;;;-145.69;57.80;52388.94;5054154;28;20672;-82
2023/12/04 07:43:33;;;;;;;4.20;2.60;;;;;;;-145.69;58.02;52388.94;5056123;28;20218;-82
2023/12/04 07:46:01;;;;;;;4.10;2.30;;;;;;;-145.69;57.70;52386.97;5056086;28;20577;-83
2023/12/04 07:48:29;;;;;;;4.70;2.40;;;;;;;-145.69;58.22;52369.13;5055674;28;20700;-83
2023/12/04 07:50:56;;;;;;;4.50;2.20;;;;;;;-145.69;57.58;52408.75;5056192;28;20203;-83
2023/12/04 07:53:22;;;;;;;7.40;3.63;;;;;;;-145.69;56.52;52367.16;5055828;28;20658;-81
2023/12/04 07:55:50;;;;;;;5.50;3.03;;;;;;;-145.69;56.64;52396.84;5055868;28;20239;-83
2023/12/04 07:58:17;;;;;;;7.33;3.40;;;;;;;-145.69;56.91;52390.91;5056105;28;20208;-82
2023/12/04 08:00:44;;;;;;;6.53;4.03;;;;;;;-145.69;57.05;52381.00;5055970;28;20203;-82
2023/12/04 08:03:12;;;;;;;8.70;3.70;;;;;;;-145.69;56.65;52383.00;5056252;28;20204;-83
2023/12/04 08:05:38;;;;;;;7.77;3.13;;;;;;;-145.69;56.80;52412.69;5066241;28;20207;-83
2023/12/04 08:08:05;;;;;;;4.87;2.73;;;;;;;-145.69;56.39;52349.31;5075756;28;20230;-85
2023/12/04 08:10:32;;;;;;;6.93;3.17;;;;;;;-145.69;55.84;52369.13;5076595;28;20234;-85
2023/12/04 08:12:58;;;;;;;6.30;3.23;;;;;;;-145.69;55.67;52379.03;5077660;28;20234;-85
2023/12/04 08:15:25;;;;;;;5.40;2.80;;;;;;;-145.69;55.06;52369.13;5076655;28;20207;-85
2023/12/04 08:17:51;;;;;;;4.63;2.63;;;;;;;-145.69;54.90;52357.25;5076039;28;20222;-85
2023/12/04 08:20:22;;;;;;;6.00;3.00;;;;;;;-145.69;54.81;52381.00;5076267;28;20203;-85
2023/12/04 08:22:49;;;;;;;7.00;2.80;;;;;;;-145.69;54.91;52341.41;5075774;28;20237;-85
2023/12/04 08:25:15;;;;;;;8.43;3.60;;;;;;;-145.69;54.80;52408.75;5075687;28;20203;-85
2023/12/04 08:27:42;;;;;;;3.67;2.40;;;;;;;-145.69;54.66;52341.41;5075382;28;20222;-85
2023/12/04 08:30:09;;;;;;;7.03;3.13;;;;;;;-145.69;55.00;52377.06;5076598;28;20297;-85
2023/12/04 08:32:36;;;;;;;5.77;3.03;;;;;;;-145.69;55.26;52377.06;5075878;28;20203;-85
2023/12/04 08:35:03;;;;;;;5.93;2.83;;;;;;;-145.69;54.56;52416.66;5051922;28;20199;-85
2023/12/04 08:37:31;;;;;;;6.07;2.80;;;;;;;-145.69;55.07;52377.06;5075299;28;20202;-83
2023/12/04 08:39:58;;;;;;;4.90;2.80;;;;;;;-145.69;55.10;52353.28;5059707;28;20206;-82
2023/12/04 08:42:24;;;;;;;4.67;3.17;;;;;;;-145.69;55.06;52379.03;5054914;28;20562;-83
2023/12/04 08:44:51;;;;;;;6.10;2.70;;;;;;;-145.69;55.11;52375.06;5055177;28;20215;-83
2023/12/04 08:47:17;;;;;;;5.13;2.57;;;;;;;-145.69;55.00;52377.06;5054883;28;20223;-83
2023/12/04 08:49:44;;;;;;;6.23;3.30;;;;;;;-145.69;54.77;52369.13;5057704;28;20195;-83
2023/12/04 08:52:11;;;;;;;7.23;2.77;;;;;;;-145.69;54.88;52337.44;5054626;28;20206;-83
2023/12/04 08:54:41;;;;;;;5.93;3.07;;;;;;;-145.69;54.46;52373.09;5055093;28;20215;-83
2023/12/04 08:57:08;;;;;;;4.77;2.77;;;;;;;-145.69;54.38;52355.28;5059395;28;20214;-82
2023/12/04 08:59:35;;;;;;;3.73;2.63;;;;;;;-145.69;54.79;52383.00;5058849;28;20200;-82
2023/12/04 09:02:03;;;;;;;6.00;2.90;;;;;;;-145.69;53.96;52361.22;5057732;28;20207;-82
2023/12/04 09:04:30;;;;;;;7.23;3.73;;;;;;;-145.69;53.53;52365.16;5058261;28;20206;-82
2023/12/04 09:06:56;;;;;;;7.13;3.70;;;;;;;-145.69;53.25;52355.28;5075374;28;20320;-82
2023/12/04 09:09:23;;;;;;;6.43;3.63;;;;;;;-145.69;52.75;52341.41;5077277;28;20235;-82
2023/12/04 09:11:54;;;;;;;10.93;4.37;;;;;;;-145.69;52.63;52398.84;5075102;28;20207;-82
2023/12/04 09:14:21;;;;;;;7.00;3.87;;;;;;;-145.69;53.05;52339.44;5075717;28;20203;-82
2023/12/04 09:16:47;;;;;;;8.57;4.23;;;;;;;-145.69;53.36;52349.31;5078670;28;20213;-82
2023/12/04 09:19:14;;;;;;;9.90;4.00;;;;;;;-145.69;53.51;52345.38;5082722;28;20211;-82
2023/12/04 09:21:44;;;;;;;7.97;4.20;;;;;;;-145.69;53.22;52353.28;5083968;28;20217;-82
2023/12/04 09:24:10;;;;;;;7.83;4.10;;;;;;;-145.69;53.15;52357.25;5083255;28;20340;-82
2023/12/04 09:26:40;;;;;;;7.33;4.00;;;;;;;-145.69;53.40;52317.66;5081688;28;20211;-82
2023/12/04 09:29:10;;;;;;;7.90;3.63;;;;;;;-145.69;53.46;52365.16;5080851;28;20657;-82
2023/12/04 09:31:36;;;;;;;7.07;3.73;;;;;;;-145.69;54.01;52341.41;5079655;28;20195;-82
2023/12/04 09:34:03;;;;;;;6.47;4.10;;;;;;;-145.69;53.29;52349.31;5080101;28;20201;-82
2023/12/04 09:36:30;;;;;;;8.67;4.07;;;;;;;-145.69;53.50;52357.25;5079098;28;20199;-82
2023/12/04 09:38:56;;;;;;;7.90;3.30;;;;;;;-145.69;52.62;52353.28;5076773;28;20198;-83
2023/12/04 09:41:23;;;;;;;7.77;3.90;;;;;;;-145.69;52.26;52361.22;5076341;28;20195;-83
2023/12/04 09:43:51;;;;;;;7.70;3.60;;;;;;;-145.69;51.88;52337.44;5076830;28;20207;-82
2023/12/04 09:46:20;;;;;;;5.70;3.27;;;;;;;-145.69;52.69;52357.25;5077195;28;20221;-82
2023/12/04 09:48:47;;;;;;;7.13;3.70;;;;;;;-145.69;52.19;52341.41;5080706;28;20234;-82
2023/12/04 09:51:14;;;;;;;11.20;3.83;;;;;;;-145.69;52.69;52337.44;5079841;28;20306;-82
2023/12/04 09:53:41;;;;;;;9.90;3.87;;;;;;;-145.69;52.97;52337.44;5077871;28;20203;-82
2023/12/04 09:56:09;;;;;;;9.70;4.00;;;;;;;-145.69;52.49;52335.47;5079732;28;20224;-81
2023/12/04 09:58:40;;;;;;;6.60;3.37;;;;;;;-145.69;52.34;52347.34;5079782;28;20209;-82
2023/12/04 10:01:08;;;;;;;6.63;3.30;;;;;;;-145.69;52.89;52321.59;5076843;28;20681;-82
2023/12/04 10:03:37;;;;;;;5.70;2.90;;;;;;;-145.69;52.59;52341.41;5079665;28;20214;-82
2023/12/04 10:06:05;;;;;;;6.13;2.80;;;;;;;-145.69;51.77;52371.13;5083435;28;20195;-80
2023/12/04 10:08:32;;;;;;;6.10;3.77;;;;;;;-145.69;51.83;52384.97;5086432;28;20230;-80
2023/12/04 10:10:59;;;;;;;6.67;3.33;;;;;;;-145.69;52.12;52321.59;5085024;28;20203;-80
2023/12/04 10:13:25;;;;;;;6.03;3.30;;;;;;;-145.69;51.32;52355.28;5073115;28;20214;-81
2023/12/04 10:15:52;;;;;;;8.40;3.43;;;;;;;-145.69;51.77;52353.28;5073297;28;20211;-82
2023/12/04 10:18:26;;;;;;;6.80;3.03;;;;;;;-145.69;51.43;52325.56;5071667;28;20230;-82
2023/12/04 10:20:55;;;;;;;5.80;3.00;;;;;;;-145.69;50.92;52355.28;5072951;28;20634;-82
2023/12/04 10:23:22;;;;;;;6.37;3.00;;;;;;;-145.69;51.59;52349.31;5073155;28;20203;-82
2023/12/04 10:25:51;;;;;;;7.53;3.23;;;;;;;-145.69;51.82;52341.41;5073785;28;20203;-80
2023/12/04 10:28:21;;;;;;;8.27;4.10;;;;;;;-145.69;51.62;52363.19;5072198;28;20226;-82
2023/12/04 10:30:47;;;;;;;6.73;3.10;;;;;;;-145.69;51.40;52349.31;5057076;28;20206;-82
2023/12/04 10:33:14;;;;;;;10.57;4.43;;;;;;;-145.69;51.92;52333.47;5053321;28;20207;-82
2023/12/04 10:35:40;;;;;;;8.57;3.90;;;;;;;-145.69;51.78;52341.41;5056770;28;20191;-80
2023/12/04 10:38:08;;;;;;;9.00;3.73;;;;;;;-145.69;52.09;52353.28;5074581;28;20201;-82
2023/12/04 10:40:37;;;;;;;9.53;4.17;;;;;;;-145.69;51.61;52315.66;5074121;28;20248;-82
2023/12/04 10:43:12;;;;;;;6.80;3.57;;;;;;;-145.69;51.83;52329.53;5075102;28;20244;-82
2023/12/04 10:45:39;;;;;;;10.00;4.70;;;;;;;-145.69;51.93;52353.28;5076194;28;20213;-80
2023/12/04 10:48:06;;;;;;;12.67;5.47;;;;;;;-145.69;52.20;52323.59;5074647;28;20264;-80
2023/12/04 10:50:33;;;;;;;10.57;5.83;;;;;;;-145.69;52.15;52347.34;5065878;28;20294;-80
2023/12/04 10:53:02;;;;;;;9.73;5.20;;;;;;;-145.69;52.65;52371.13;5053963;28;20214;-81
2023/12/04 10:55:33;;;;;;;11.57;5.40;;;;;;;-145.69;51.96;52309.72;5054460;28;20353;-82
2023/12/04 10:58:03;;;;;;;7.67;4.60;;;;;;;-145.69;51.91;52341.41;5054264;28;20207;-83
2023/12/04 11:00:32;;;;;;;8.70;4.30;;;;;;;-145.69;51.99;52349.31;5056251;28;20203;-82
2023/12/04 11:03:05;;;;;;;10.43;4.60;;;;;;;-145.69;51.86;52337.44;5057724;28;20203;-82
2023/12/04 11:05:37;;;;;;;9.37;4.43;;;;;;;-145.69;51.95;52333.47;5067210;28;20262;-82
2023/12/04 11:08:06;;;;;;;8.20;3.87;;;;;;;-145.69;51.91;52317.66;5076976;28;20225;-82
2023/12/04 11:10:42;;;;;;;6.50;3.43;;;;;;;-145.69;51.64;52315.66;5073770;28;20237;-83
2023/12/04 11:13:13;;;;;;;6.63;3.63;;;;;;;-145.69;50.38;52361.22;5074168;28;20557;-82
2023/12/04 11:15:42;;;;;;;7.07;3.20;;;;;;;-145.69;49.99;52333.47;5076024;28;20226;-82
2023/12/04 11:18:12;;;;;;;5.63;3.00;;;;;;;-145.69;49.37;52325.56;5078816;28;20210;-82